| time (UTC) | temp F | wind direction | speed knots | gust knots | rain 1hr in | rain 24hr in | rain mn in | humidity % | barometer mb |
| 20260505201009 | 55 | 162 | 3.5 | 7.8 | 0.00 | 0.00 | 0.00 | 41 | 1001.4 |
| 20260505200509 | 54 | 149 | 7.0 | 10.4 | 0.00 | 0.00 | 0.00 | 41 | 1001.3 |
| 20260505200008 | 54 | 196 | 5.2 | 10.4 | 0.00 | 0.00 | 0.00 | 41 | 1001.3 |
| 20260505195509 | 54 | 219 | 5.2 | 8.7 | 0.00 | 0.00 | 0.00 | 42 | 1001.3 |
| 20260505195009 | 54 | 161 | 3.5 | 9.6 | 0.00 | 0.00 | 0.00 | 41 | 1001.4 |
| 20260505194509 | 54 | 199 | 5.2 | 9.6 | 0.00 | 0.00 | 0.00 | 41 | 1001.3 |
| 20260505194238 | 55 | 157 | 4.3 | 10.4 | 0.00 | 0.00 | 0.00 | 41 | 1001.3 |
| 20260505193519 | 55 | 216 | 6.1 | 10.4 | 0.00 | 0.00 | 0.00 | 39 | 1001.4 |
| 20260505193010 | 55 | 164 | 5.2 | 9.6 | 0.00 | 0.00 | 0.00 | 43 | 1001.3 |
| 20260505192729 | 54 | 172 | 6.1 | 9.6 | 0.00 | 0.00 | 0.00 | 45 | 1001.6 |
| 20260505192008 | 54 | 161 | 5.2 | 7.8 | 0.00 | 0.00 | 0.00 | 44 | 1001.5 |
| 20260505191508 | 53 | 162 | 5.2 | 5.2 | 0.00 | 0.00 | 0.00 | 40 | 1001.5 |
| 20260505191229 | 0 | 0.0 | 0.0 | 0.00 | 0.00 | 0.00 | 1001.5 | ||
| 20260505190505 | 53 | 175 | 6.1 | 5.2 | 0.00 | 0.00 | 0.00 | 40 | 1001.4 |
| 20260505190003 | 53 | 175 | 6.1 | 8.7 | 0.00 | 0.00 | 0.00 | 40 | 1001.5 |
| 20260505185505 | 54 | 219 | 6.1 | 8.7 | 0.00 | 0.00 | 0.00 | 38 | 1001.6 |
| 20260505185001 | 55 | 159 | 7.8 | 13.9 | 0.00 | 0.00 | 0.00 | 39 | 1001.6 |
| 20260505184511 | 55 | 175 | 9.6 | 13.9 | 0.00 | 0.00 | 0.00 | 39 | 1001.6 |
| 20260505184001 | 55 | 176 | 7.0 | 11.3 | 0.00 | 0.00 | 0.00 | 40 | 1001.5 |
| 20260505183500 | 54 | 165 | 7.8 | 11.3 | 0.00 | 0.00 | 0.00 | 42 | 1001.5 |
| 20260505183001 | 54 | 183 | 6.1 | 12.2 | 0.00 | 0.00 | 0.00 | 40 | 1001.4 |
| 20260505182459 | 54 | 183 | 6.1 | 12.2 | 0.00 | 0.00 | 0.00 | 40 | 1001.4 |
| 20260505181959 | 54 | 169 | 8.7 | 11.3 | 0.00 | 0.00 | 0.00 | 40 | 1001.5 |
| 20260505181458 | 53 | 176 | 6.1 | 8.7 | 0.00 | 0.00 | 0.00 | 40 | 1001.4 |
| 20260505180958 | 54 | 151 | 7.0 | 9.6 | 0.00 | 0.00 | 0.00 | 39 | 1001.1 |
| 20260505180458 | 55 | 165 | 8.7 | 9.6 | 0.00 | 0.00 | 0.00 | 39 | 1001.2 |
| 20260505175958 | 0 | 0.0 | 0.0 | 0.00 | 0.00 | 0.00 | 1001.2 | ||
| 20260505175456 | 0 | 0.0 | 0.0 | 0.00 | 0.00 | 0.00 | 1001.1 | ||
| 20260505174954 | 0 | 0.0 | 0.0 | 0.00 | 0.00 | 0.00 | 1001.2 | ||
| 20260505174719 | 0 | 0.0 | 0.0 | 0.00 | 0.00 | 0.00 | 1001.1 | ||
| 20260505173951 | 54 | 175 | 6.1 | 8.7 | 0.00 | 0.00 | 0.00 | 41 | 1001.0 |
| 20260505173449 | 54 | 175 | 6.1 | 11.3 | 0.00 | 0.00 | 0.00 | 41 | 1001.2 |
| 20260505173214 | 55 | 178 | 7.8 | 13.9 | 0.00 | 0.00 | 0.00 | 36 | 1001.1 |
| 20260505172448 | 55 | 162 | 8.7 | 13.9 | 0.00 | 0.00 | 0.00 | 36 | 1001.1 |
| 20260505171947 | 0 | 0.0 | 0.0 | 0.00 | 0.00 | 0.00 | 1001.1 | ||
| 20260505171445 | 0 | 166 | 7.8 | 7.8 | 0.00 | 0.00 | 0.00 | 1001.2 | |
| 20260505170944 | 54 | 166 | 7.8 | 15.6 | 0.00 | 0.00 | 0.00 | 41 | 1001.1 |
| 20260505170444 | 54 | 152 | 7.8 | 15.6 | 0.00 | 0.00 | 0.00 | 41 | 1001.2 |
| 20260505165944 | 54 | 172 | 11.3 | 15.6 | 0.00 | 0.00 | 0.00 | 42 | 1001.1 |
| 20260505165443 | 53 | 131 | 5.2 | 10.4 | 0.00 | 0.00 | 0.00 | 43 | 1001.3 |
| 20260505164943 | 53 | 165 | 6.1 | 12.2 | 0.00 | 0.00 | 0.00 | 40 | 1001.4 |
| 20260505164442 | 54 | 166 | 7.8 | 13.0 | 0.00 | 0.00 | 0.00 | 38 | 1001.3 |
| 20260505164427 | 54 | 157 | 7.8 | 13.0 | 0.00 | 0.00 | 0.00 | 39 | 1001.3 |
| 20260505163442 | 55 | 165 | 8.7 | 13.0 | 0.00 | 0.00 | 0.00 | 39 | 1001.3 |
| 20260505162943 | 55 | 155 | 7.0 | 13.0 | 0.00 | 0.00 | 0.00 | 40 | 1001.3 |
| 20260505162442 | 54 | 206 | 5.2 | 10.4 | 0.00 | 0.00 | 0.00 | 41 | 1001.3 |
| 20260505162430 | 54 | 165 | 5.2 | 13.9 | 0.00 | 0.00 | 0.00 | 38 | 1001.3 |
| 20260505161924 | 54 | 189 | 8.7 | 13.9 | 0.00 | 0.00 | 0.00 | 38 | 1001.2 |
| 20260505160942 | 55 | 161 | 7.8 | 12.2 | 0.00 | 0.00 | 0.00 | 37 | 1001.2 |
| 20260505160442 | 54 | 173 | 5.2 | 10.4 | 0.00 | 0.00 | 0.00 | 38 | 1001.1 |
| 20260505160206 | 54 | 159 | 5.2 | 10.4 | 0.00 | 0.00 | 0.00 | 39 | 1001.1 |
| 20260505152939 | 54 | 165 | 7.0 | 10.4 | 0.00 | 0.00 | 0.00 | 40 | 1001.0 |
| 20260505152439 | 54 | 179 | 6.1 | 9.6 | 0.00 | 0.00 | 0.00 | 41 | 1001.0 |
| 20260505151938 | 53 | 164 | 3.5 | 6.1 | 0.00 | 0.00 | 0.00 | 42 | 1001.0 |
| 20260505151436 | 53 | 149 | 3.5 | 6.1 | 0.00 | 0.00 | 0.00 | 41 | 1001.1 |
| 20260505150937 | 53 | 175 | 5.2 | 8.7 | 0.00 | 0.00 | 0.00 | 43 | 1001.0 |
| 20260505150434 | 52 | 204 | 5.2 | 8.7 | 0.00 | 0.00 | 0.00 | 43 | 1001.1 |
| 20260505150156 | 0 | 0.0 | 0.0 | 0.00 | 0.00 | 0.00 | 1001.0 | ||
| 20260505140431 | 51 | 209 | 6.1 | 9.6 | 0.00 | 0.00 | 0.00 | 49 | 1001.1 |
| 20260505124922 | 45 | 168 | 0.0 | 5.2 | 0.00 | 0.00 | 0.00 | 60 | 1001.0 |
| 20260505124422 | 43 | 154 | 1.7 | 3.5 | 0.00 | 0.00 | 0.00 | 63 | 1000.9 |
| 20260505124147 | 43 | 154 | 1.7 | 3.5 | 0.00 | 0.00 | 0.00 | 63 | 1000.9 |
| 20260505123421 | 43 | 157 | 1.7 | 3.5 | 0.00 | 0.00 | 0.00 | 65 | 1000.8 |
| 20260505122922 | 42 | 155 | 1.7 | 3.5 | 0.00 | 0.00 | 0.00 | 66 | 1000.7 |
| 20260505122421 | 42 | 155 | 1.7 | 3.5 | 0.00 | 0.00 | 0.00 | 76 | 1000.6 |
| 20260505122144 | 40 | 169 | 0.0 | 1.7 | 0.00 | 0.00 | 0.00 | 76 | 1000.4 |
| 20260505121642 | 40 | 169 | 0.0 | 0.0 | 0.00 | 0.00 | 0.00 | 78 | 1000.4 |
| 20260505120916 | 40 | 169 | 0.0 | 0.0 | 0.00 | 0.00 | 0.00 | 78 | 1000.4 |
| 20260505120416 | 40 | 169 | 0.0 | 0.0 | 0.00 | 0.00 | 0.00 | 78 | 1000.3 |
| 20260505115916 | 39 | 169 | 0.0 | 0.0 | 0.00 | 0.00 | 0.00 | 78 | 1000.2 |
| 20260505115642 | 39 | 169 | 0.0 | 0.0 | 0.00 | 0.00 | 0.00 | 78 | 1000.1 |
| 20260505115140 | 39 | 169 | 0.0 | 0.0 | 0.00 | 0.00 | 0.00 | 78 | 1000.0 |
| 20260505114415 | 39 | 169 | 0.0 | 0.0 | 0.00 | 0.00 | 0.00 | 77 | 999.7 |
| 20260505113915 | 39 | 169 | 0.0 | 0.0 | 0.00 | 0.00 | 0.00 | 77 | 999.6 |
| 20260505113415 | 39 | 169 | 0.0 | 0.0 | 0.00 | 0.00 | 0.00 | 77 | 999.7 |
| 20260505112912 | 39 | 169 | 0.0 | 0.0 | 0.00 | 0.00 | 0.00 | 77 | 999.5 |
| 20260505112412 | 39 | 169 | 0.0 | 0.0 | 0.00 | 0.00 | 0.00 | 77 | 999.3 |
| 20260505112137 | 39 | 169 | 0.0 | 0.0 | 0.00 | 0.00 | 0.00 | 77 | 999.1 |
| 20260505111412 | 39 | 169 | 0.0 | 0.0 | 0.00 | 0.00 | 0.00 | 77 | 998.9 |
| 20260505110912 | 39 | 169 | 0.0 | 0.0 | 0.00 | 0.00 | 0.00 | 76 | 998.8 |
| 20260505110410 | 39 | 169 | 0.0 | 0.0 | 0.00 | 0.00 | 0.00 | 76 | 998.9 |
| 20260505101903 | 41 | 169 | 0.0 | 0.0 | 0.00 | 0.00 | 0.00 | 69 | 999.1 |
| 20260505101403 | 41 | 169 | 0.0 | 0.0 | 0.00 | 0.00 | 0.00 | 67 | 999.1 |
| 20260505100902 | 41 | 169 | 0.0 | 0.0 | 0.00 | 0.00 | 0.00 | 67 | 998.9 |
| 20260505100402 | 42 | 169 | 0.0 | 0.0 | 0.00 | 0.00 | 0.00 | 66 | 999.0 |
| 20260505095902 | 42 | 169 | 0.0 | 0.0 | 0.00 | 0.00 | 0.00 | 66 | 998.8 |
| 20260505095402 | 42 | 169 | 0.0 | 0.0 | 0.00 | 0.00 | 0.00 | 65 | 998.8 |
| 20260505094902 | 42 | 169 | 0.0 | 0.0 | 0.00 | 0.00 | 0.00 | 65 | 998.6 |
| 20260505094401 | 42 | 169 | 0.0 | 0.0 | 0.00 | 0.00 | 0.00 | 64 | 998.6 |
| 20260505094124 | 43 | 169 | 0.0 | 0.0 | 0.00 | 0.00 | 0.00 | 64 | 998.6 |
| 20260505093401 | 43 | 169 | 0.0 | 0.0 | 0.00 | 0.00 | 0.00 | 64 | 998.6 |
| 20260505092901 | 43 | 169 | 0.0 | 0.0 | 0.00 | 0.00 | 0.00 | 62 | 998.4 |
| 20260505092401 | 43 | 169 | 0.0 | 0.0 | 0.00 | 0.00 | 0.00 | 63 | 998.4 |
| 20260505092123 | 44 | 169 | 0.0 | 0.0 | 0.00 | 0.00 | 0.00 | 61 | 998.3 |
| 20260505091401 | 44 | 169 | 0.0 | 0.0 | 0.00 | 0.00 | 0.00 | 61 | 998.2 |
| 20260505090859 | 44 | 169 | 0.0 | 0.0 | 0.00 | 0.00 | 0.00 | 62 | 998.2 |
| 20260505090359 | 44 | 169 | 0.0 | 0.0 | 0.00 | 0.00 | 0.00 | 63 | 998.0 |
| 20260505085859 | 44 | 169 | 0.0 | 0.0 | 0.00 | 0.00 | 0.00 | 61 | 997.9 |
| 20260505085623 | 45 | 169 | 0.0 | 0.0 | 0.00 | 0.00 | 0.00 | 63 | 997.9 |
| 20260505084857 | 45 | 169 | 0.0 | 0.0 | 0.00 | 0.00 | 0.00 | 63 | 997.9 |
| 20260505084357 | 0 | 0.0 | 0.0 | 0.00 | 0.00 | 0.00 | 997.9 | ||
| 20260505083855 | 45 | 169 | 0.0 | 0.0 | 0.00 | 0.00 | 0.00 | 60 | 997.8 |
| 20260505083620 | 45 | 169 | 0.0 | 0.0 | 0.00 | 0.00 | 0.00 | 60 | 997.8 |
| 20260505082853 | 0 | 0.0 | 0.0 | 0.00 | 0.00 | 0.00 | 997.7 | ||
| 20260505082833 | 46 | 169 | 0.0 | 0.0 | 0.00 | 0.00 | 0.00 | 59 | 997.7 |
| 20260505081850 | 46 | 169 | 0.0 | 0.0 | 0.00 | 0.00 | 0.00 | 59 | 997.6 |
| 20260505081347 | 46 | 169 | 0.0 | 0.0 | 0.00 | 0.00 | 0.00 | 57 | 997.5 |
| 20260505080846 | 46 | 169 | 0.0 | 0.0 | 0.00 | 0.00 | 0.00 | 57 | 997.3 |
| 20260505080345 | 46 | 169 | 0.0 | 0.0 | 0.00 | 0.00 | 0.00 | 57 | 997.1 |
| 20260505075845 | 46 | 169 | 0.0 | 0.0 | 0.00 | 0.00 | 0.00 | 57 | 997.1 |
| 20260505075344 | 47 | 169 | 0.0 | 0.0 | 0.00 | 0.00 | 0.00 | 55 | 997.0 |
| 20260505074844 | 47 | 169 | 0.0 | 0.0 | 0.00 | 0.00 | 0.00 | 54 | 996.9 |
| 20260505074331 | 47 | 169 | 0.0 | 0.0 | 0.00 | 0.00 | 0.00 | 54 | 996.9 |
| 20260505073830 | 47 | 169 | 0.0 | 0.0 | 0.00 | 0.00 | 0.00 | 54 | 996.9 |
| 20260505073815 | 47 | 169 | 0.0 | 0.0 | 0.00 | 0.00 | 0.00 | 55 | 996.9 |
| 20260505072831 | 0 | 0.0 | 0.0 | 0.00 | 0.00 | 0.00 | 996.9 | ||
| 20260505072331 | 48 | 169 | 0.0 | 0.9 | 0.00 | 0.00 | 0.00 | 52 | 997.0 |
| 20260505071831 | 48 | 169 | 0.0 | 3.5 | 0.00 | 0.00 | 0.00 | 52 | 996.9 |
| 20260505071331 | 48 | 169 | 1.7 | 3.5 | 0.00 | 0.00 | 0.00 | 53 | 996.9 |
| 20260505070831 | 48 | 169 | 0.0 | 2.6 | 0.00 | 0.00 | 0.00 | 53 | 996.9 |
| 20260505070331 | 48 | 169 | 0.0 | 3.5 | 0.00 | 0.00 | 0.00 | 51 | 996.9 |
| 20260505065832 | 48 | 169 | 1.7 | 3.5 | 0.00 | 0.00 | 0.00 | 52 | 996.9 |
| 20260505065331 | 48 | 168 | 0.9 | 3.5 | 0.00 | 0.00 | 0.00 | 50 | 997.0 |
| 20260505064831 | 49 | 168 | 0.0 | 1.7 | 0.00 | 0.00 | 0.00 | 53 | 997.0 |
| 20260505064549 | 49 | 169 | 0.9 | 1.7 | 0.00 | 0.00 | 0.00 | 52 | 997.0 |
| 20260505063831 | 49 | 169 | 0.0 | 1.7 | 0.00 | 0.00 | 0.00 | 49 | 996.9 |
| 20260505063552 | 49 | 172 | 0.9 | 3.5 | 0.00 | 0.00 | 0.00 | 51 | 997.0 |
| 20260505062831 | 49 | 172 | 1.7 | 3.5 | 0.00 | 0.00 | 0.00 | 50 | 997.1 |
| 20260505062558 | 49 | 173 | 2.6 | 4.3 | 0.00 | 0.00 | 0.00 | 49 | 997.0 |
| 20260505062101 | 49 | 173 | 2.6 | 4.3 | 0.00 | 0.00 | 0.00 | 49 | 997.3 |
| 20260505061332 | 50 | 165 | 0.9 | 3.5 | 0.00 | 0.00 | 0.00 | 49 | 997.1 |
| 20260505060830 | 50 | 166 | 1.7 | 3.5 | 0.00 | 0.00 | 0.00 | 48 | 997.1 |
| 20260505060820 | 50 | 154 | 3.5 | 5.2 | 0.00 | 0.00 | 0.00 | 48 | 997.0 |
| 20260505055805 | 50 | 152 | 2.6 | 5.2 | 0.00 | 0.00 | 0.00 | 48 | 997.0 |
| 20260505055303 | 51 | 204 | 2.6 | 7.8 | 0.00 | 0.00 | 0.00 | 49 | 996.9 |
| 20260505054734 | 51 | 210 | 4.3 | 7.8 | 0.00 | 0.00 | 0.00 | 49 | 996.9 |
| 20260505054502 | 51 | 148 | 5.2 | 5.2 | 0.00 | 0.00 | 0.00 | 48 | 996.8 |
| 20260505053731 | 51 | 180 | 2.6 | 4.3 | 0.00 | 0.00 | 0.00 | 48 | 996.9 |
| 20260505053231 | 51 | 182 | 2.6 | 4.3 | 0.00 | 0.00 | 0.00 | 47 | 996.8 |
| 20260505052731 | 51 | 164 | 3.5 | 7.8 | 0.00 | 0.00 | 0.00 | 48 | 996.8 |
| 20260505052230 | 51 | 169 | 4.3 | 7.8 | 0.00 | 0.00 | 0.00 | 48 | 996.6 |
| 20260505051728 | 52 | 231 | 3.5 | 11.3 | 0.00 | 0.00 | 0.00 | 48 | 996.6 |
| 20260505051207 | 52 | 155 | 5.2 | 11.3 | 0.00 | 0.00 | 0.00 | 46 | 996.5 |
| 20260505050705 | 52 | 221 | 3.5 | 8.7 | 0.00 | 0.00 | 0.00 | 46 | 996.4 |
| 20260505050204 | 52 | 164 | 1.7 | 5.2 | 0.00 | 0.00 | 0.00 | 46 | 996.4 |
| 20260505041705 | 53 | 169 | 2.6 | 5.2 | 0.00 | 0.00 | 0.00 | 45 | 996.1 |
| 20260505041205 | 53 | 164 | 2.6 | 8.7 | 0.00 | 0.00 | 0.00 | 46 | 996.0 |
| 20260505040705 | 54 | 155 | 3.5 | 8.7 | 0.00 | 0.00 | 0.00 | 46 | 996.0 |
| 20260505040204 | 54 | 157 | 1.7 | 5.2 | 0.00 | 0.00 | 0.00 | 46 | 995.8 |
| 20260505035704 | 54 | 166 | 4.3 | 7.8 | 0.00 | 0.00 | 0.00 | 47 | 995.6 |
| 20260505035205 | 54 | 196 | 4.3 | 7.8 | 0.00 | 0.00 | 0.00 | 47 | 995.6 |
| 20260505034705 | 54 | 162 | 2.6 | 7.8 | 0.00 | 0.00 | 0.00 | 46 | 995.5 |
| 20260505034429 | 55 | 162 | 3.5 | 7.8 | 0.00 | 0.00 | 0.00 | 45 | 995.4 |
| 20260505033705 | 55 | 169 | 3.5 | 7.8 | 0.00 | 0.00 | 0.00 | 46 | 995.3 |
| 20260505033204 | 55 | 172 | 2.6 | 5.2 | 0.00 | 0.00 | 0.00 | 47 | 995.2 |
| 20260505032705 | 55 | 166 | 2.6 | 5.2 | 0.00 | 0.00 | 0.00 | 47 | 995.1 |
| 20260505032204 | 56 | 144 | 2.6 | 7.8 | 0.00 | 0.00 | 0.00 | 47 | 995.0 |
| 20260505032149 | 56 | 164 | 2.6 | 7.8 | 0.00 | 0.00 | 0.00 | 45 | 994.9 |
| 20260505031205 | 56 | 164 | 4.3 | 7.8 | 0.00 | 0.00 | 0.00 | 45 | 994.8 |
| 20260505030702 | 56 | 171 | 5.2 | 7.8 | 0.00 | 0.00 | 0.00 | 45 | 994.8 |
| 20260505030434 | 56 | 159 | 4.3 | 7.8 | 0.00 | 0.00 | 0.00 | 45 | 994.6 |
| 20260505025702 | 57 | 142 | 3.5 | 7.8 | 0.00 | 0.00 | 0.00 | 45 | 994.6 |
| 20260505025204 | 57 | 175 | 3.5 | 10.4 | 0.00 | 0.00 | 0.00 | 45 | 994.4 |
| 20260505024703 | 57 | 159 | 4.3 | 10.4 | 0.00 | 0.00 | 0.00 | 45 | 994.3 |
| 20260505024358 | 57 | 145 | 2.6 | 6.1 | 0.00 | 0.00 | 0.00 | 45 | 994.2 |
| 20260505023631 | 58 | 164 | 2.6 | 8.7 | 0.00 | 0.00 | 0.00 | 43 | 993.9 |
| 20260505023358 | 58 | 164 | 2.6 | 8.7 | 0.00 | 0.00 | 0.00 | 44 | 993.8 |
| 20260505022631 | 58 | 159 | 3.5 | 6.1 | 0.00 | 0.00 | 0.00 | 44 | 993.9 |
| 20260505022131 | 58 | 164 | 3.5 | 5.2 | 0.00 | 0.00 | 0.00 | 44 | 993.7 |
| 20260505021854 | 58 | 190 | 3.5 | 6.1 | 0.00 | 0.00 | 0.00 | 44 | 993.5 |
| 20260505021132 | 59 | 175 | 4.3 | 6.1 | 0.00 | 0.00 | 0.00 | 44 | 993.4 |
| 20260505020613 | 59 | 155 | 1.7 | 5.2 | 0.00 | 0.00 | 0.00 | 44 | 993.3 |
| 20260505020117 | 59 | 212 | 1.7 | 7.8 | 0.00 | 0.00 | 0.00 | 43 | 993.1 |
| 20260505015612 | 59 | 169 | 1.7 | 13.0 | 0.00 | 0.00 | 0.00 | 43 | 993.0 |
| 20260505015113 | 59 | 154 | 5.2 | 13.0 | 0.00 | 0.00 | 0.00 | 42 | 992.9 |
| 20260505014612 | 59 | 147 | 1.7 | 5.2 | 0.00 | 0.00 | 0.00 | 44 | 992.8 |
| 20260505014557 | 59 | 147 | 0.9 | 5.2 | 0.00 | 0.00 | 0.00 | 44 | 992.6 |
| 20260505013838 | 60 | 111 | 1.7 | 5.2 | 0.00 | 0.00 | 0.00 | 42 | 992.6 |
| 20260505013112 | 60 | 152 | 0.9 | 5.2 | 0.00 | 0.00 | 0.00 | 42 | 992.5 |
| 20260505012843 | 60 | 127 | 0.9 | 2.6 | 0.00 | 0.00 | 0.00 | 42 | 992.4 |
| 20260505012112 | 60 | 151 | 1.7 | 2.6 | 0.00 | 0.00 | 0.00 | 42 | 992.4 |
| 20260505011611 | 61 | 144 | 3.5 | 5.2 | 0.00 | 0.00 | 0.00 | 40 | 992.3 |
| 20260505011110 | 61 | 144 | 3.5 | 8.7 | 0.00 | 0.00 | 0.00 | 40 | 992.2 |
| 20260505010607 | 61 | 141 | 3.5 | 6.1 | 0.00 | 0.00 | 0.00 | 39 | 992.2 |
| 20260505010106 | 61 | 159 | 3.5 | 7.8 | 0.00 | 0.00 | 0.00 | 39 | 992.0 |
| 20260505005605 | 61 | 128 | 5.2 | 7.8 | 0.00 | 0.00 | 0.00 | 37 | 991.9 |
| 20260505005332 | 62 | 159 | 3.5 | 6.1 | 0.00 | 0.00 | 0.00 | 37 | 991.5 |
| 20260505004824 | 62 | 148 | 6.1 | 7.8 | 0.00 | 0.00 | 0.00 | 39 | 991.6 |
| 20260505004105 | 62 | 168 | 4.3 | 7.8 | 0.00 | 0.00 | 0.00 | 39 | 991.6 |
| 20260505003605 | 62 | 140 | 2.6 | 12.2 | 0.00 | 0.00 | 0.00 | 38 | 991.7 |
| 20260505003102 | 62 | 148 | 6.1 | 12.2 | 0.00 | 0.00 | 0.00 | 38 | 991.7 |
| 20260505002808 | 63 | 147 | 5.2 | 8.7 | 0.00 | 0.00 | 0.00 | 37 | 991.8 |
| 20260505002031 | 63 | 186 | 3.5 | 8.7 | 0.00 | 0.00 | 0.00 | 36 | 991.9 |
| 20260505001531 | 63 | 154 | 3.5 | 11.3 | 0.00 | 0.00 | 0.00 | 38 | 991.9 |
| 20260505001031 | 63 | 186 | 7.0 | 11.3 | 0.00 | 0.00 | 0.00 | 37 | 991.8 |
| 20260505000531 | 63 | 96 | 3.5 | 6.1 | 0.00 | 0.00 | 0.00 | 36 | 991.6 |
| 20260505000253 | 63 | 131 | 3.5 | 6.1 | 0.00 | 0.00 | 0.00 | 36 | 991.6 |
| 20260504235530 | 64 | 189 | 5.2 | 6.1 | 0.00 | 0.00 | 0.00 | 35 | 991.6 |
| 20260504235228 | 64 | 189 | 5.2 | 7.8 | 0.00 | 0.00 | 0.00 | 35 | 991.7 |
| 20260504234503 | 64 | 210 | 3.5 | 6.1 | 0.00 | 0.00 | 0.00 | 34 | 991.7 |
| 20260504234004 | 64 | 210 | 3.5 | 11.3 | 0.00 | 0.00 | 0.00 | 34 | 991.5 |
| 20260504233724 | 64 | 147 | 5.2 | 12.2 | 0.00 | 0.00 | 0.00 | 34 | 991.6 |
| 20260504233225 | 65 | 214 | 6.1 | 12.2 | 0.00 | 0.00 | 0.00 | 35 | 991.6 |
| 20260504232502 | 65 | 120 | 4.3 | 7.8 | 0.00 | 0.00 | 0.00 | 34 | 991.6 |
| 20260504232003 | 65 | 121 | 2.6 | 6.1 | 0.00 | 0.00 | 0.00 | 33 | 991.6 |
| 20260504231503 | 65 | 169 | 2.6 | 6.1 | 0.00 | 0.00 | 0.00 | 35 | 991.4 |
| 20260504231003 | 65 | 172 | 3.5 | 6.1 | 0.00 | 0.00 | 0.00 | 33 | 991.4 |
| 20260504230503 | 65 | 161 | 3.5 | 8.7 | 0.00 | 0.00 | 0.00 | 33 | 991.3 |
| 20260504230002 | 66 | 168 | 3.5 | 8.7 | 0.00 | 0.00 | 0.00 | 35 | 991.0 |
| 20260504225502 | 66 | 145 | 3.5 | 8.7 | 0.00 | 0.00 | 0.00 | 35 | 991.0 |
| 20260504225003 | 66 | 245 | 6.1 | 8.7 | 0.00 | 0.00 | 0.00 | 34 | 991.0 |
| 20260504224716 | 66 | 141 | 3.5 | 10.4 | 0.00 | 0.00 | 0.00 | 32 | 991.0 |
| 20260504224702 | 66 | 152 | 2.6 | 8.7 | 0.00 | 0.00 | 0.00 | 36 | 991.0 |
| 20260504223502 | 67 | 145 | 4.3 | 10.4 | 0.00 | 0.00 | 0.00 | 33 | 990.8 |
| 20260504223003 | 67 | 178 | 1.7 | 6.1 | 0.00 | 0.00 | 0.00 | 34 | 990.8 |
| 20260504222503 | 67 | 138 | 3.5 | 8.7 | 0.00 | 0.00 | 0.00 | 35 | 990.7 |
| 20260504222007 | 67 | 173 | 5.2 | 8.7 | 0.00 | 0.00 | 0.00 | 35 | 990.7 |
| 20260504221503 | 67 | 158 | 5.2 | 12.2 | 0.00 | 0.00 | 0.00 | 36 | 990.6 |
| 20260504221002 | 67 | 158 | 6.1 | 12.2 | 0.00 | 0.00 | 0.00 | 34 | 990.5 |
| 20260504220504 | 68 | 142 | 6.1 | 11.3 | 0.00 | 0.00 | 0.00 | 33 | 990.6 |
| 20260504215949 | 68 | 165 | 6.1 | 13.9 | 0.00 | 0.00 | 0.00 | 33 | 990.5 |
| 20260504215709 | 69 | 159 | 9.6 | 13.9 | 0.00 | 0.00 | 0.00 | 35 | 990.5 |
| 20260504214946 | 69 | 137 | 5.2 | 11.3 | 0.00 | 0.00 | 0.00 | 34 | 990.3 |
| 20260504214447 | 70 | 173 | 6.1 | 11.3 | 0.00 | 0.00 | 0.00 | 32 | 990.0 |
| 20260504213946 | 70 | 166 | 7.0 | 10.4 | 0.00 | 0.00 | 0.00 | 34 | 989.8 |
| 20260504213446 | 71 | 161 | 5.2 | 8.7 | 0.00 | 0.00 | 0.00 | 34 | 989.8 |
| 20260504213205 | 71 | 183 | 6.1 | 12.2 | 0.00 | 0.00 | 0.00 | 32 | 989.7 |
| 20260504212444 | 71 | 159 | 7.0 | 12.2 | 0.00 | 0.00 | 0.00 | 32 | 989.6 |
| 20260504211945 | 71 | 166 | 3.5 | 11.3 | 0.00 | 0.00 | 0.00 | 33 | 989.7 |
| 20260504211709 | 71 | 165 | 6.1 | 11.3 | 0.00 | 0.00 | 0.00 | 34 | 989.7 |
| 20260504210945 | 71 | 179 | 6.1 | 9.6 | 0.00 | 0.00 | 0.00 | 34 | 989.6 |
| 20260504210444 | 71 | 165 | 7.0 | 13.0 | 0.00 | 0.00 | 0.00 | 33 | 989.7 |
| 20260504205944 | 71 | 161 | 7.8 | 13.0 | 0.00 | 0.00 | 0.00 | 34 | 989.5 |
| 20260504205442 | 71 | 175 | 5.2 | 13.0 | 0.00 | 0.00 | 0.00 | 33 | 989.5 |
| 20260504204941 | 71 | 182 | 5.2 | 13.0 | 0.00 | 0.00 | 0.00 | 33 | 989.5 |
| 20260504204441 | 72 | 162 | 6.1 | 13.0 | 0.00 | 0.00 | 0.00 | 34 | 989.5 |
| 20260504203941 | 72 | 164 | 5.2 | 13.0 | 0.00 | 0.00 | 0.00 | 35 | 989.2 |
| 20260504203440 | 72 | 149 | 7.0 | 14.8 | 0.00 | 0.00 | 0.00 | 34 | 989.2 |
| 20260504202940 | 73 | 169 | 11.3 | 14.8 | 0.00 | 0.00 | 0.00 | 35 | 989.0 |
| 20260504202441 | 73 | 179 | 6.1 | 13.0 | 0.00 | 0.00 | 0.00 | 36 | 989.1 |
| 20260504201941 | 73 | 158 | 8.7 | 13.0 | 0.00 | 0.00 | 0.00 | 34 | 989.0 |
| 20260504201441 | 74 | 157 | 7.0 | 13.9 | 0.00 | 0.00 | 0.00 | 36 | 989.0 |